createdAt,value
2022-10-04T00:00:43.694Z,13.30
2022-10-04T00:03:36.880Z,13.30
2022-10-04T00:06:27.114Z,13.30
2022-10-04T00:09:18.469Z,13.30
2022-10-04T00:12:07.416Z,13.30
2022-10-04T00:14:58.460Z,13.30
2022-10-04T00:18:02.355Z,13.30
2022-10-04T00:20:59.802Z,13.30
2022-10-04T00:23:49.043Z,13.30
2022-10-04T00:27:12.670Z,13.30
2022-10-04T00:30:21.392Z,13.30
2022-10-04T00:33:10.767Z,13.30
2022-10-04T00:35:58.833Z,13.30
2022-10-04T00:39:04.267Z,13.40
2022-10-04T00:42:00.446Z,13.30
2022-10-04T00:44:52.611Z,13.30
2022-10-04T00:47:59.744Z,13.20
2022-10-04T00:50:53.620Z,13.20
2022-10-04T00:53:51.664Z,13.30
2022-10-04T00:56:45.718Z,13.20
2022-10-04T00:59:39.420Z,13.20
2022-10-04T01:02:32.705Z,13.20
2022-10-04T01:05:24.158Z,13.20
2022-10-04T01:08:15.608Z,13.30
2022-10-04T01:11:10.162Z,13.20
2022-10-04T01:14:00.799Z,13.20
2022-10-04T01:16:48.992Z,13.30
2022-10-04T01:19:36.994Z,13.10
2022-10-04T01:22:39.007Z,13.10
2022-10-04T01:25:47.549Z,13.10
2022-10-04T01:28:36.701Z,13.10
2022-10-04T01:31:25.879Z,13.10
2022-10-04T01:34:16.159Z,13.00
2022-10-04T01:37:04.272Z,13.00
2022-10-04T01:39:53.802Z,13.00
2022-10-04T01:42:46.544Z,12.90
2022-10-04T01:45:41.276Z,12.90
2022-10-04T01:48:36.852Z,12.80
2022-10-04T01:51:28.602Z,12.90
2022-10-04T01:54:20.735Z,12.90
2022-10-04T01:57:16.498Z,12.80
2022-10-04T02:00:07.706Z,12.80
2022-10-04T02:02:59.760Z,12.70
2022-10-04T02:05:52.479Z,12.70
2022-10-04T02:08:47.046Z,12.70
2022-10-04T02:11:39.386Z,12.70
2022-10-04T02:14:33.555Z,12.80
2022-10-04T02:17:24.282Z,12.80
2022-10-04T02:20:16.615Z,12.80
2022-10-04T02:23:04.768Z,12.80
2022-10-04T02:25:53.012Z,12.80
2022-10-04T02:28:41.343Z,12.80
2022-10-04T02:32:03.214Z,12.80
2022-10-04T02:34:52.113Z,12.90
2022-10-04T02:37:40.472Z,12.80
2022-10-04T02:40:31.990Z,12.80
2022-10-04T02:43:24.454Z,12.80
2022-10-04T02:46:16.833Z,12.70
2022-10-04T02:49:22.699Z,12.80
2022-10-04T02:52:16.272Z,12.70
2022-10-04T02:55:07.988Z,12.70
2022-10-04T02:57:57.236Z,12.70
2022-10-04T03:00:50.627Z,12.70
2022-10-04T03:03:41.427Z,12.60
2022-10-04T03:06:33.856Z,12.50
2022-10-04T03:09:28.810Z,12.60
2022-10-04T03:12:18.436Z,12.40
2022-10-04T03:15:08.894Z,12.50
2022-10-04T03:17:57.009Z,12.40
2022-10-04T03:20:46.173Z,12.50
2022-10-04T03:23:36.194Z,12.50
2022-10-04T03:26:30.285Z,12.40
2022-10-04T03:29:20.114Z,12.40
2022-10-04T03:32:08.250Z,12.40
2022-10-04T03:34:58.787Z,12.40
2022-10-04T03:37:47.710Z,12.40
2022-10-04T03:40:39.403Z,12.60
2022-10-04T03:43:31.724Z,12.40
2022-10-04T03:46:22.831Z,12.30
2022-10-04T03:49:16.351Z,12.30
2022-10-04T03:52:05.937Z,12.20
2022-10-04T03:54:58.240Z,12.20
2022-10-04T03:57:47.796Z,12.30
2022-10-04T04:00:41.129Z,12.30
2022-10-04T04:03:35.849Z,12.30
2022-10-04T04:06:25.644Z,12.30
2022-10-04T04:09:21.176Z,12.40
2022-10-04T04:12:15.556Z,12.50
2022-10-04T04:15:07.889Z,12.50
2022-10-04T04:17:56.551Z,12.50
2022-10-04T04:20:45.327Z,12.40
2022-10-04T04:23:36.667Z,12.40
2022-10-04T04:26:31.367Z,12.50
2022-10-04T04:29:24.682Z,12.30
2022-10-04T04:32:18.860Z,12.20
2022-10-04T04:35:21.235Z,12.10
2022-10-04T04:38:18.503Z,12.00
2022-10-04T04:41:11.121Z,12.00
2022-10-04T04:43:59.280Z,11.90
2022-10-04T04:46:48.088Z,11.90
2022-10-04T04:49:40.963Z,11.90
2022-10-04T04:52:31.435Z,12.00
2022-10-04T04:55:21.369Z,12.00
2022-10-04T04:58:12.984Z,12.10
2022-10-04T05:01:04.257Z,12.20
2022-10-04T05:04:03.236Z,12.20
2022-10-04T05:07:03.387Z,12.30
2022-10-04T05:09:51.395Z,12.30
2022-10-04T05:12:39.422Z,12.40
2022-10-04T05:15:28.896Z,12.30
2022-10-04T05:18:31.509Z,12.40
2022-10-04T05:21:30.584Z,12.40
2022-10-04T05:24:24.719Z,12.50
2022-10-04T05:27:18.162Z,12.50
2022-10-04T05:30:09.659Z,12.40
2022-10-04T05:33:02.697Z,12.50
2022-10-04T05:36:11.290Z,12.60
2022-10-04T05:39:06.159Z,12.60
2022-10-04T05:42:02.293Z,12.60
2022-10-04T05:44:52.793Z,12.60
2022-10-04T05:47:43.344Z,12.60
2022-10-04T05:50:35.094Z,12.60
2022-10-04T05:53:32.962Z,12.70
2022-10-04T05:56:52.897Z,12.70
2022-10-04T06:00:04.078Z,12.70
2022-10-04T06:03:19.983Z,12.70
2022-10-04T06:06:18.624Z,12.70
2022-10-04T06:09:14.192Z,12.80
2022-10-04T06:12:10.645Z,12.90
2022-10-04T06:15:17.056Z,13.00
2022-10-04T06:18:19.091Z,12.90
2022-10-04T06:21:20.255Z,13.00
2022-10-04T06:24:14.635Z,12.90
2022-10-04T06:27:13.899Z,13.10
2022-10-04T06:30:06.806Z,13.20
2022-10-04T06:33:16.586Z,13.20
2022-10-04T06:36:31.210Z,13.20
2022-10-04T06:39:43.099Z,13.20
2022-10-04T06:42:51.841Z,13.20
2022-10-04T06:45:55.639Z,13.30
2022-10-04T06:49:10.234Z,13.30
2022-10-04T06:52:32.223Z,13.30
2022-10-04T06:55:37.183Z,13.30
2022-10-04T06:58:44.778Z,13.60
2022-10-04T07:01:35.968Z,13.50
2022-10-04T07:04:55.756Z,13.60
2022-10-04T07:07:47.423Z,13.60
2022-10-04T07:10:41.748Z,13.60
2022-10-04T07:13:38.880Z,13.60
2022-10-04T07:16:36.103Z,13.70
2022-10-04T07:19:32.081Z,13.70
2022-10-04T07:22:27.176Z,13.70
2022-10-04T07:25:21.624Z,13.80
2022-10-04T07:28:33.252Z,13.80
2022-10-04T07:31:27.324Z,13.80
2022-10-04T07:34:19.999Z,13.90
2022-10-04T07:37:12.752Z,14.00
2022-10-04T07:40:06.082Z,14.10
2022-10-04T07:42:59.964Z,14.10
2022-10-04T07:45:50.721Z,14.20
2022-10-04T07:48:43.026Z,14.20
2022-10-04T07:51:39.997Z,14.10
2022-10-04T07:54:38.746Z,14.10
2022-10-04T07:57:41.433Z,14.10
2022-10-04T08:00:37.792Z,14.20
2022-10-04T08:03:41.649Z,14.40
2022-10-04T08:06:36.406Z,14.60
2022-10-04T08:09:43.062Z,14.90
2022-10-04T08:12:42.472Z,15.20
2022-10-04T08:15:37.462Z,15.20
2022-10-04T08:18:41.168Z,15.10
2022-10-04T08:21:36.954Z,15.10
2022-10-04T08:24:35.321Z,15.20
2022-10-04T08:27:33.238Z,15.10
2022-10-04T08:30:20.542Z,15.10
2022-10-04T08:33:16.979Z,15.10
2022-10-04T08:36:20.729Z,15.10
2022-10-04T08:39:24.970Z,15.30
2022-10-04T08:42:55.540Z,15.20
2022-10-04T08:46:33.140Z,15.30
2022-10-04T08:49:57.979Z,15.30
2022-10-04T08:52:59.179Z,15.30
2022-10-04T08:56:06.750Z,15.40
2022-10-04T08:59:22.870Z,15.60
2022-10-04T09:02:39.643Z,15.50
2022-10-04T09:05:40.164Z,15.70
2022-10-04T09:09:30.786Z,15.80
2022-10-04T09:12:44.332Z,15.80
2022-10-04T09:15:56.558Z,15.90
2022-10-04T09:19:01.271Z,16.10
2022-10-04T09:22:19.579Z,16.20
2022-10-04T09:25:26.526Z,16.10
2022-10-04T09:28:25.713Z,16.00
2022-10-04T09:31:45.211Z,15.90
2022-10-04T09:34:47.104Z,15.90
2022-10-04T09:37:45.396Z,15.70
2022-10-04T09:40:58.495Z,15.80
2022-10-04T09:44:20.292Z,15.80
2022-10-04T09:47:41.289Z,15.90
2022-10-04T09:51:08.195Z,15.90
2022-10-04T09:54:12.642Z,16.00
2022-10-04T09:57:14.991Z,16.40
2022-10-04T10:00:12.615Z,16.40
2022-10-04T10:03:26.276Z,16.50
2022-10-04T10:06:37.303Z,16.50
2022-10-04T10:09:46.412Z,16.50
2022-10-04T10:13:17.117Z,16.60
2022-10-04T10:16:12.748Z,16.70
2022-10-04T10:19:14.901Z,16.90
2022-10-04T10:22:19.572Z,17.00
2022-10-04T10:25:28.544Z,17.10
2022-10-04T10:28:35.569Z,17.10
2022-10-04T10:31:43.520Z,17.20
2022-10-04T10:35:02.622Z,17.40
2022-10-04T10:38:07.839Z,17.70
2022-10-04T10:41:15.406Z,18.00
2022-10-04T10:44:19.861Z,18.30
2022-10-04T10:47:22.560Z,18.10
2022-10-04T10:50:32.672Z,17.90
2022-10-04T10:53:59.155Z,17.70
2022-10-04T10:56:56.743Z,17.80
2022-10-04T11:00:22.032Z,18.00
2022-10-04T11:03:51.673Z,18.20
2022-10-04T11:07:04.837Z,18.30
2022-10-04T11:10:26.320Z,18.50
2022-10-04T11:13:46.641Z,18.80
2022-10-04T11:17:05.968Z,18.90
2022-10-04T11:20:28.359Z,18.50
2022-10-04T11:23:57.238Z,18.50
2022-10-04T11:27:14.091Z,18.50
2022-10-04T11:30:15.995Z,18.30
2022-10-04T11:33:35.585Z,18.40
2022-10-04T11:36:37.904Z,18.60
2022-10-04T11:39:44.721Z,18.70
2022-10-04T11:43:00.600Z,18.80
2022-10-04T11:46:16.287Z,18.90
2022-10-04T11:49:25.943Z,18.90
2022-10-04T11:52:46.287Z,18.70
2022-10-04T11:55:57.276Z,18.50
2022-10-04T11:58:58.333Z,18.50
2022-10-04T12:02:17.737Z,18.60
2022-10-04T12:05:34.036Z,18.50
2022-10-04T12:08:42.423Z,18.50
2022-10-04T12:12:14.057Z,18.40
2022-10-04T12:15:18.910Z,18.40
2022-10-04T12:18:32.930Z,18.40
2022-10-04T12:21:51.785Z,18.60
2022-10-04T12:25:09.224Z,18.90
2022-10-04T12:28:12.793Z,18.90
2022-10-04T12:31:17.180Z,18.80
2022-10-04T12:34:17.114Z,18.90
2022-10-04T12:37:20.004Z,19.10
2022-10-04T12:40:27.025Z,19.00
2022-10-04T12:43:21.855Z,19.10
2022-10-04T12:46:25.060Z,19.30
2022-10-04T12:49:25.827Z,19.60
2022-10-04T12:52:19.663Z,19.90
2022-10-04T12:55:22.027Z,20.20
2022-10-04T12:58:19.544Z,20.50
2022-10-04T13:01:22.656Z,20.40
2022-10-04T13:04:30.500Z,20.50
2022-10-04T13:07:36.778Z,20.60
2022-10-04T13:10:44.963Z,20.70
2022-10-04T13:13:56.636Z,21.00
2022-10-04T13:20:19.472Z,20.80
2022-10-04T13:23:17.432Z,20.60
2022-10-04T13:26:16.262Z,20.30
2022-10-04T13:29:13.107Z,20.10
2022-10-04T13:32:10.955Z,19.90
2022-10-04T13:35:09.172Z,20.10
2022-10-04T13:38:17.271Z,21.10
2022-10-04T13:41:24.958Z,22.10
2022-10-04T13:44:41.407Z,23.00
2022-10-04T13:47:47.957Z,23.20
2022-10-04T13:50:46.989Z,22.80
2022-10-04T13:54:00.446Z,22.40
2022-10-04T13:57:05.475Z,21.70
2022-10-04T14:00:01.915Z,21.10
2022-10-04T14:03:17.423Z,20.70
2022-10-04T14:06:31.759Z,20.40
2022-10-04T14:09:39.043Z,20.40
2022-10-04T14:12:46.373Z,21.40
2022-10-04T14:15:51.045Z,23.00
2022-10-04T14:19:14.853Z,23.90
2022-10-04T14:22:25.108Z,25.00
2022-10-04T14:25:54.497Z,25.30
2022-10-04T14:29:21.124Z,26.40
2022-10-04T14:32:52.947Z,27.40
2022-10-04T14:35:48.620Z,26.50
2022-10-04T14:38:56.215Z,24.90
2022-10-04T14:42:24.264Z,23.80
2022-10-04T14:45:25.104Z,23.10
2022-10-04T14:48:45.125Z,22.80
2022-10-04T14:52:04.561Z,22.80
2022-10-04T14:54:58.822Z,22.60
2022-10-04T14:58:14.393Z,21.90
2022-10-04T15:01:20.412Z,21.20
2022-10-04T15:04:21.372Z,20.70
2022-10-04T15:07:21.444Z,20.30
2022-10-04T15:10:15.223Z,20.00
2022-10-04T15:13:12.321Z,19.70
2022-10-04T15:16:13.929Z,19.50
2022-10-04T15:19:09.726Z,19.30
2022-10-04T15:22:06.838Z,19.10
2022-10-04T15:24:56.770Z,19.00
2022-10-04T15:27:55.571Z,18.90
2022-10-04T15:30:54.250Z,18.60
2022-10-04T15:33:47.574Z,18.50
2022-10-04T15:37:04.010Z,18.20
2022-10-04T15:40:10.051Z,18.20
2022-10-04T15:43:25.691Z,18.10
2022-10-04T15:46:43.350Z,17.90
2022-10-04T15:49:48.969Z,17.80
2022-10-04T15:53:10.764Z,17.70
2022-10-04T15:56:11.645Z,17.50
2022-10-04T15:59:38.770Z,17.50
2022-10-04T16:02:48.564Z,17.40
2022-10-04T16:05:42.576Z,17.30
2022-10-04T16:08:50.255Z,17.20
2022-10-04T16:11:51.468Z,17.00
2022-10-04T16:15:01.878Z,17.00
2022-10-04T16:18:31.658Z,16.70
2022-10-04T16:21:29.504Z,16.70
2022-10-04T16:24:41.517Z,16.60
2022-10-04T16:27:45.941Z,16.40
2022-10-04T16:30:41.000Z,16.20
2022-10-04T16:33:36.350Z,16.10
2022-10-04T16:36:28.392Z,15.90
2022-10-04T16:39:52.280Z,15.80
2022-10-04T16:42:55.431Z,15.60
2022-10-04T16:46:06.221Z,15.50
2022-10-04T16:48:57.650Z,15.40
2022-10-04T16:52:02.831Z,15.30
2022-10-04T16:55:04.313Z,15.20
2022-10-04T16:58:30.710Z,15.00
2022-10-04T17:02:00.611Z,14.90
2022-10-04T17:04:57.130Z,14.80
2022-10-04T17:08:02.586Z,14.60
2022-10-04T17:11:15.259Z,14.60
2022-10-04T17:14:22.287Z,14.50
2022-10-04T17:17:23.627Z,14.40
2022-10-04T17:20:23.402Z,14.30
2022-10-04T17:23:28.918Z,14.10
2022-10-04T17:26:30.243Z,14.10
2022-10-04T17:29:32.470Z,14.00
2022-10-04T17:32:28.009Z,13.90
2022-10-04T17:35:39.152Z,13.90
2022-10-04T17:38:37.248Z,13.80
2022-10-04T17:41:36.062Z,13.70
2022-10-04T17:44:34.546Z,13.70
2022-10-04T17:47:51.743Z,13.60
2022-10-04T17:51:05.231Z,13.60
2022-10-04T17:54:15.499Z,13.50
2022-10-04T17:57:16.040Z,13.50
2022-10-04T18:00:09.298Z,13.50
2022-10-04T18:03:12.510Z,13.40
2022-10-04T18:06:11.951Z,13.40
2022-10-04T18:09:02.865Z,13.30
2022-10-04T18:11:53.730Z,13.30
2022-10-04T18:14:58.983Z,13.20
2022-10-04T18:17:50.179Z,13.20
2022-10-04T18:20:46.156Z,13.20
2022-10-04T18:23:39.300Z,13.10
2022-10-04T18:26:29.755Z,13.00
2022-10-04T18:29:35.816Z,13.00
2022-10-04T18:32:35.705Z,12.90
2022-10-04T18:35:27.680Z,12.90
2022-10-04T18:38:24.734Z,12.90
2022-10-04T18:41:18.919Z,12.80
2022-10-04T18:44:15.264Z,12.80
2022-10-04T18:47:14.096Z,12.80
2022-10-04T18:50:04.114Z,12.70
2022-10-04T18:53:32.283Z,12.70
2022-10-04T18:56:22.400Z,12.70
2022-10-04T18:59:37.177Z,12.60
2022-10-04T19:02:35.205Z,12.60
2022-10-04T19:05:32.461Z,12.60
2022-10-04T19:08:38.050Z,12.60
2022-10-04T19:11:34.045Z,12.60
2022-10-04T19:14:30.289Z,12.50
2022-10-04T19:17:27.287Z,12.50
2022-10-04T19:20:21.825Z,12.50
2022-10-04T19:23:22.927Z,12.40
2022-10-04T19:26:31.835Z,12.40
2022-10-04T19:29:33.906Z,12.40
2022-10-04T19:32:30.630Z,12.40
2022-10-04T19:35:30.047Z,12.50
2022-10-04T19:38:38.637Z,12.50
2022-10-04T19:41:41.965Z,12.50
2022-10-04T19:44:39.059Z,12.40
2022-10-04T19:47:41.144Z,12.50
2022-10-04T19:50:33.623Z,12.40
2022-10-04T19:53:28.609Z,12.40
2022-10-04T19:56:19.715Z,12.40
2022-10-04T19:59:16.943Z,12.40
2022-10-04T20:02:10.172Z,12.30
2022-10-04T20:04:58.355Z,12.40
2022-10-04T20:07:50.390Z,12.30
2022-10-04T20:10:39.569Z,12.30
2022-10-04T20:13:27.750Z,12.30
2022-10-04T20:16:57.815Z,12.20
2022-10-04T20:19:47.200Z,12.20
2022-10-04T20:22:54.967Z,12.10
2022-10-04T20:26:03.548Z,12.10
2022-10-04T20:28:51.576Z,12.00
2022-10-04T20:31:55.630Z,12.00
2022-10-04T20:34:50.414Z,11.90
2022-10-04T20:38:31.172Z,11.90
2022-10-04T20:42:19.809Z,11.90
2022-10-04T20:45:43.863Z,11.80
2022-10-04T20:48:33.098Z,11.80
2022-10-04T20:51:24.093Z,11.80
2022-10-04T20:54:17.176Z,11.80
2022-10-04T20:57:05.338Z,11.90
2022-10-04T20:59:55.488Z,11.90
2022-10-04T21:02:43.778Z,11.90
2022-10-04T21:05:31.841Z,11.70
2022-10-04T21:08:26.700Z,11.90
2022-10-04T21:11:20.174Z,11.90
2022-10-04T21:14:23.383Z,11.90
2022-10-04T21:17:36.683Z,11.90
2022-10-04T21:20:43.399Z,11.90
2022-10-04T21:23:34.318Z,11.90
2022-10-04T21:26:23.584Z,11.90
2022-10-04T21:29:11.545Z,11.80
2022-10-04T21:32:00.164Z,11.80
2022-10-04T21:34:53.526Z,11.80
2022-10-04T21:37:42.088Z,11.80
2022-10-04T21:40:31.372Z,11.70
2022-10-04T21:43:19.360Z,11.70
2022-10-04T21:46:07.641Z,11.70
2022-10-04T21:48:55.715Z,11.70
2022-10-04T21:51:43.727Z,11.60
2022-10-04T21:54:31.905Z,11.60
2022-10-04T21:57:23.884Z,11.60
2022-10-04T22:00:12.963Z,11.60
2022-10-04T22:03:01.050Z,11.50
2022-10-04T22:05:49.038Z,11.50
2022-10-04T22:08:37.049Z,11.50
2022-10-04T22:11:25.193Z,11.50
2022-10-04T22:14:14.518Z,11.40
2022-10-04T22:17:02.605Z,11.40
2022-10-04T22:19:52.860Z,11.30
2022-10-04T22:22:40.866Z,11.30
2022-10-04T22:25:29.041Z,11.30
2022-10-04T22:28:23.219Z,11.30
2022-10-04T22:31:14.684Z,11.30
2022-10-04T22:34:02.698Z,11.30
2022-10-04T22:36:52.023Z,11.20
2022-10-04T22:39:40.139Z,11.20
2022-10-04T22:42:31.284Z,11.20
2022-10-04T22:45:22.851Z,11.20
2022-10-04T22:48:14.812Z,11.10
2022-10-04T22:51:02.793Z,11.10
2022-10-04T22:53:51.046Z,11.10
2022-10-04T22:56:40.458Z,11.10
2022-10-04T22:59:35.849Z,11.10
2022-10-04T23:02:26.731Z,11.00
2022-10-04T23:05:18.159Z,11.10
2022-10-04T23:08:06.176Z,11.10
2022-10-04T23:10:55.400Z,11.00
2022-10-04T23:13:43.399Z,11.10
2022-10-04T23:16:31.984Z,11.10
2022-10-04T23:19:21.023Z,11.10
2022-10-04T23:22:16.594Z,11.10
2022-10-04T23:25:14.193Z,11.10
2022-10-04T23:28:06.572Z,11.00
2022-10-04T23:31:03.245Z,11.00
2022-10-04T23:33:51.851Z,11.00
2022-10-04T23:36:39.975Z,11.00
2022-10-04T23:39:31.803Z,11.00
2022-10-04T23:42:21.637Z,11.00
2022-10-04T23:45:17.855Z,11.10
2022-10-04T23:48:10.400Z,11.00
2022-10-04T23:51:00.863Z,11.00
2022-10-04T23:53:50.648Z,11.00
2022-10-04T23:56:40.068Z,10.90
2022-10-04T23:59:29.468Z,10.90
